Decoded Metar for KBKW (BECKLEY in WV, USA) (IATA:BKW) | Meteo·Mobile Aviation Weather
aviador You're here:

KBKW Decoded Metar

BECKLEY in WV, USA
Report Time2018-09-22 03:51:00
UTC Time2018-09-22 04:06:35
Flight Rules vfr VFR
WindCalm
Visibility9999 m
Phenomena:N/A
Clouds:N/A
Expected CloudBase > 800 ft AGL from Temp-Dew spread
CeilingNone
Temp20°C (ISA +10)
Dew Point18°C (88% RH)
QNH1022 hPa
Density Alt3,652 ft
Elevation2,507 ft
Report Wrong Elevation
Raw Report
KBKW 220351Z AUTO 00000KT 10SM CLR 20/18 A3019 RMK AO2 SLP186
T02000178 TSNO=

Extra information for KBKW:More info

Metar Taf Metar & Taf Last 4 Metars F.Rules Stats Wind Profile Meteogram Temp Stats Airport Information Weather charts Add Link Nearby VenuesMetar ALERT Operation Metar Decoded Social comments

AIRNAV info for KBKW